AirNav   Pilot Hours Calculator
 
 1283 users online  

NH69 Windsock Village Airport
West Ossipee, New Hampshire, USA

GOING TO WEST OSSIPEE?


FAA INFORMATION EFFECTIVE 04 NOVEMBER 2021

Location

FAA Identifier: NH69
Lat/Long: 43-49-34.5200N 071-11-05.3800W
43-49.575333N 071-11.089667W
43.8262556,-71.1848278
(estimated)
Elevation: 460 ft. / 140 m (estimated)
Variation: 17W (1990)
From city: 1 mile E of WEST OSSIPEE, NH
Time zone: UTC -4 (UTC -5 during Standard Time)
Zip code: 03814

Airport Operations

Airport use: Private use. Permission required prior to landing
Activation date: 05/1992
Control tower: no
ARTCC: BOSTON CENTER
FSS: BANGOR FLIGHT SERVICE STATION
Attendance: IREG IREG
Wind indicator: yes
Segmented circle: no
Lights: ACTVT LIRL RY 15/33 - 122.7.

Airport Communications

UNICOM: 123.05
WX ASOS at IZG (14 nm NE): 135.775 (207-935-2882)
WX AWOS-3PT at LCI (18 nm SW): 133.525 (603-524-5134)

Nearby radio navigation aids

VOR radial/distance  VOR name  Freq  Var
ENEr331/34.5KENNEBUNK VOR/DME117.1017W

 
NDB name  Hdg/Dist  Freq  Var  ID
MAHN163/38.738617WGMA --. -- .-
ROLLINS353/39.526016WESG . ... --.

Airport Services

Runway Information

Runway 15/33

Dimensions: 4000 x 225 ft. / 1219 x 69 m
Surface: turf
Runway edge lights: low intensity
RUNWAY 15  RUNWAY 33
Traffic pattern: leftleft

Airport Ownership and Management from official FAA records

Ownership: Privately-owned
Owner: WINDSOCK VILLAGE AV CORP
BOX 501
WEST OSSIPEE, NH 03890
Phone 207-370-5168
Manager: WINDSOCK VILLAGE AV CORP
BOX 501
WEST OSSIPEE, NH 03890
Phone 207-370-5168

Airport Operational Statistics

Aircraft based on the field: 37
Single engine airplanes: 33
Multi engine airplanes: 2
Gliders airplanes: 1
Ultralights: 1
    

Additional Remarks

FOR CD CTC BOSTON ARTCC AT 603-879-6859.

Instrument Procedures

There are no published instrument procedures at NH69.

Some nearby airports with instrument procedures:

KIZG - Eastern Slopes Regional Airport (14 nm NE)
KLCI - Laconia Municipal Airport (18 nm SW)
KSFM - Sanford Seacoast Regional Airport (33 nm SE)
KDAW - Skyhaven Airport (34 nm S)
KHIE - Mount Washington Regional Airport (36 nm NW)
 
Loc | Ops | Rwys | IFR | FBO | Links
Com | Nav | Svcs | Stats | Notes
Area around NH69 (Windsock Village Airport)
 
Road maps at: MapQuest Bing Google
 
Aerial photo
WARNING: Photo may not be current or correct
Aerial photo of NH69 (Windsock Village Airport)
Do you have a better or more recent aerial photo of Windsock Village Airport that you would like to share? If so, please send us your photo.

 
Sectional chart

 
Airport distance calculator
Flying to Windsock Village Airport? Find the distance to fly.

From to NH69

Sunrise and sunset
Times for 28-Nov-2021
 Local
(UTC-5)
 Zulu
(UTC)
Morning civil twilight06:2411:24
Sunrise06:5611:56
Sunset16:0921:09
Evening civil twilight16:4121:41

Current date and time
Zulu (UTC)  28-Nov-2021 21:55:36
Local (UTC-5)  28-Nov-2021 16:55:36
 
METAR
KIZG 
14nm NE 
282054Z AUTO 00000KT 10SM OVC095 01/M11 A2981 RMK AO2 SLP100 T00061111 53007
KLCI 
19nm SW 
282056Z AUTO 23005KT 10SM CLR M01/M09 A2981 RMK AO2 SLP102 T10061094 50001 FZRANO
TAF
KHIE 
36nm NW 
281720Z 2818/2918 VRB03KT P6SM FEW250 FM290500 VRB03KT 5SM -SN BR OVC060 FM291100 36002KT P6SM BKN040
KPWM 
40nm E 
281720Z 2818/2918 VRB03KT P6SM FEW150 SCT250 FM290500 00000KT 4SM -SHSN BR BKN040 FM290700 02005KT 2SM -SN BR OVC015 FM291200 36005KT P6SM BKN040 BKN080
KCON 
40nm S 
281720Z 2818/2918 28006KT P6SM BKN250 FM290300 00000KT 2SM -SN BR OVC025 FM290700 VRB03KT 2SM -SN BR OVC007 FM291200 32005KT P6SM BKN025 OVC060
NOTAMs
Click for the latest NOTAMs
NOTAMs are issued by the DoD/FAA and will open in a separate window not controlled by AirNav.

 

 
 

Would you like to see your business listed on this page?

 If your business provides an interesting product or service to pilots, flight crews, aircraft, or users of the Windsock Village Airport, you should consider listing it here.  To start the listing process, click on the button below
 
Add a business
 

Other Pages about Windsock Village Airport

Update a link
 
Copyright © AirNav, LLC. All rights reserved. Privacy Policy  Contact